Leesburg Regional, FL

12:01 AM EDT on April 19, 2015 (GMT -0400)
Leesburg Regional | | Change Station
CLOSE
Current Station
Airport
Location: Leesburg,
Elevation: 75 ft
Nearby Weather Stations

Elev 75 ft 28.82 °N, 81.81 °W | Updated 8 minutes ago

Clear
Clear
75 °F
Feels Like 75 °F
N
4
Wind Variable Wind from NW

Today
High -- | Low -- °F
--% Chance of Precip.
Yesterday
High -- | Low -- °F
Precip. -- in
6:57 AM 7:55 PM
New Moon, 0% visible
Pressure 29.99 in
Visibility 10.0 miles
Clouds Clear
Dew Point 71 °F
Humidity 87%
Rainfall 0.00 in
Snow Depth Not available.
UV 0 out of 12
Pollen 8.90 out of 12
Air Quality Not available.
Flu Activity Local Activity
METAR KLEE 190353Z AUTO 32003KT 10SM CLR 24/22 A2999 RMK AO2 SLP154 T02390217

More Conditions Fewer Conditions

Pressure 29.99 in
Visibility 10.0 miles
Clouds Clear
Dew Point 71 °F
Humidity 87%
Rainfall 0.00 in
Snow Depth Not available.
UV 0 out of 12
Pollen 8.90 out of 12
Air Quality Not available.
Flu Activity Local Activity
METAR KLEE 190353Z AUTO 32003KT 10SM CLR 24/22 A2999 RMK AO2 SLP154 T02390217

More Conditions Fewer Conditions

10-Day Weather Forecast

Almanac

Astronomy

Apr. 19, 2015 Rise Set
Actual Time
Civil Twilight
Nautical Twilight
Astronomical Twilight
Moon
Length of Visible Light
Length of Day
Tomorrow will be .
, % of the Moon is Illuminated

Today's Extremes

State Highs State Lows

Community

WunderPhotos

Upload Photos

1,814,719 photos uploaded!

WunderBlogs® & News

Nearby

Air Quality

  Air Quality AQ Index Pollutant
Not available.

Snow Depth

Station Depth Elevation

Earthquake Activity

City Distance Mag. Time & Date
Minimum magnitude displayed is 2.5.

Coastal Water Temperatures

Place Temperature

Stations

Nearby Weather Stations

Station Location Temp. Windchill Dew Point Humidity Wind Precip. Elev Updated Type